sensor_id;sensor_type;location;lat;lon;timestamp;temperature;humidity
51615;DHT22;37695;52.960;6.188;2023-06-10T00:02:22;16.40;99.90
51615;DHT22;37695;52.960;6.188;2023-06-10T00:04:48;16.40;99.90
51615;DHT22;37695;52.960;6.188;2023-06-10T00:07:13;16.40;99.90
51615;DHT22;37695;52.960;6.188;2023-06-10T00:09:39;16.30;99.90
51615;DHT22;37695;52.960;6.188;2023-06-10T00:12:06;16.30;99.90
51615;DHT22;37695;52.960;6.188;2023-06-10T00:14:33;16.30;99.90
51615;DHT22;37695;52.960;6.188;2023-06-10T00:16:58;16.30;99.90
51615;DHT22;37695;52.960;6.188;2023-06-10T00:19:25;16.20;99.90
51615;DHT22;37695;52.960;6.188;2023-06-10T00:21:56;16.20;99.90
51615;DHT22;37695;52.960;6.188;2023-06-10T00:24:22;16.20;99.90
51615;DHT22;37695;52.960;6.188;2023-06-10T00:26:47;16.20;99.90
51615;DHT22;37695;52.960;6.188;2023-06-10T00:29:13;16.10;99.90
51615;DHT22;37695;52.960;6.188;2023-06-10T00:31:39;16.10;99.90
51615;DHT22;37695;52.960;6.188;2023-06-10T00:34:05;16.10;99.90
51615;DHT22;37695;52.960;6.188;2023-06-10T00:36:31;16.10;99.90
51615;DHT22;37695;52.960;6.188;2023-06-10T00:38:57;16.00;99.90
51615;DHT22;37695;52.960;6.188;2023-06-10T00:41:23;16.00;99.90
51615;DHT22;37695;52.960;6.188;2023-06-10T00:43:48;16.00;99.90
51615;DHT22;37695;52.960;6.188;2023-06-10T00:46:14;15.90;99.90
51615;DHT22;37695;52.960;6.188;2023-06-10T00:48:42;16.00;99.90
51615;DHT22;37695;52.960;6.188;2023-06-10T00:51:08;15.90;99.90
51615;DHT22;37695;52.960;6.188;2023-06-10T00:53:36;15.90;99.90
51615;DHT22;37695;52.960;6.188;2023-06-10T00:56:03;15.80;99.90
51615;DHT22;37695;52.960;6.188;2023-06-10T00:58:29;15.80;99.90
51615;DHT22;37695;52.960;6.188;2023-06-10T01:00:55;15.80;99.90
51615;DHT22;37695;52.960;6.188;2023-06-10T01:03:21;15.80;99.90
51615;DHT22;37695;52.960;6.188;2023-06-10T01:05:53;15.80;99.90
51615;DHT22;37695;52.960;6.188;2023-06-10T01:08:54;15.70;99.90
51615;DHT22;37695;52.960;6.188;2023-06-10T01:11:25;15.70;99.90
51615;DHT22;37695;52.960;6.188;2023-06-10T01:13:55;15.60;99.90
51615;DHT22;37695;52.960;6.188;2023-06-10T01:16:22;15.60;99.90
51615;DHT22;37695;52.960;6.188;2023-06-10T01:18:47;15.60;99.90
51615;DHT22;37695;52.960;6.188;2023-06-10T01:21:21;15.60;99.90
51615;DHT22;37695;52.960;6.188;2023-06-10T01:23:50;15.50;99.90
51615;DHT22;37695;52.960;6.188;2023-06-10T01:26:16;15.50;99.90
51615;DHT22;37695;52.960;6.188;2023-06-10T01:28:59;15.50;99.90
51615;DHT22;37695;52.960;6.188;2023-06-10T01:31:36;15.50;99.90
51615;DHT22;37695;52.960;6.188;2023-06-10T01:34:07;15.50;99.90
51615;DHT22;37695;52.960;6.188;2023-06-10T01:36:35;15.50;99.90
51615;DHT22;37695;52.960;6.188;2023-06-10T01:39:02;15.50;99.90
51615;DHT22;37695;52.960;6.188;2023-06-10T01:41:29;15.40;99.90
51615;DHT22;37695;52.960;6.188;2023-06-10T01:43:56;15.40;99.90
51615;DHT22;37695;52.960;6.188;2023-06-10T01:46:21;15.40;99.90
51615;DHT22;37695;52.960;6.188;2023-06-10T01:48:47;15.40;99.90
51615;DHT22;37695;52.960;6.188;2023-06-10T01:51:13;15.40;99.90
51615;DHT22;37695;52.960;6.188;2023-06-10T01:53:38;15.40;99.90
51615;DHT22;37695;52.960;6.188;2023-06-10T01:56:04;15.30;99.90
51615;DHT22;37695;52.960;6.188;2023-06-10T01:58:30;15.30;99.90
51615;DHT22;37695;52.960;6.188;2023-06-10T02:00:56;15.30;99.90
51615;DHT22;37695;52.960;6.188;2023-06-10T02:03:21;15.20;99.90
51615;DHT22;37695;52.960;6.188;2023-06-10T02:05:47;15.20;99.90
51615;DHT22;37695;52.960;6.188;2023-06-10T02:08:12;15.20;99.90
51615;DHT22;37695;52.960;6.188;2023-06-10T02:10:38;15.10;99.90
51615;DHT22;37695;52.960;6.188;2023-06-10T02:13:04;15.10;99.90
51615;DHT22;37695;52.960;6.188;2023-06-10T02:15:29;15.10;99.90
51615;DHT22;37695;52.960;6.188;2023-06-10T02:17:55;15.10;99.90
51615;DHT22;37695;52.960;6.188;2023-06-10T02:20:21;14.90;99.90
51615;DHT22;37695;52.960;6.188;2023-06-10T02:22:47;14.90;99.90
51615;DHT22;37695;52.960;6.188;2023-06-10T02:25:12;14.90;99.90
51615;DHT22;37695;52.960;6.188;2023-06-10T02:27:38;14.90;99.90
51615;DHT22;37695;52.960;6.188;2023-06-10T02:30:04;14.90;99.90
51615;DHT22;37695;52.960;6.188;2023-06-10T02:32:30;14.90;99.90
51615;DHT22;37695;52.960;6.188;2023-06-10T02:34:55;14.90;99.90
51615;DHT22;37695;52.960;6.188;2023-06-10T02:37:21;14.90;99.90
51615;DHT22;37695;52.960;6.188;2023-06-10T02:39:46;14.90;99.90
51615;DHT22;37695;52.960;6.188;2023-06-10T02:42:12;14.90;99.90
51615;DHT22;37695;52.960;6.188;2023-06-10T02:44:38;14.90;99.90
51615;DHT22;37695;52.960;6.188;2023-06-10T02:47:04;14.80;99.90
51615;DHT22;37695;52.960;6.188;2023-06-10T02:49:29;14.80;99.90
51615;DHT22;37695;52.960;6.188;2023-06-10T02:51:55;14.80;99.90
51615;DHT22;37695;52.960;6.188;2023-06-10T02:54:25;14.70;99.90
51615;DHT22;37695;52.960;6.188;2023-06-10T02:56:51;14.70;99.90
51615;DHT22;37695;52.960;6.188;2023-06-10T02:59:17;14.70;99.90
51615;DHT22;37695;52.960;6.188;2023-06-10T03:01:43;14.60;99.90
51615;DHT22;37695;52.960;6.188;2023-06-10T03:04:08;14.60;99.90
51615;DHT22;37695;52.960;6.188;2023-06-10T03:06:34;14.60;99.90
51615;DHT22;37695;52.960;6.188;2023-06-10T03:09:01;15.20;99.90
51615;DHT22;37695;52.960;6.188;2023-06-10T03:11:26;14.50;99.90
51615;DHT22;37695;52.960;6.188;2023-06-10T03:13:52;14.50;99.90
51615;DHT22;37695;52.960;6.188;2023-06-10T03:16:19;14.50;99.90
51615;DHT22;37695;52.960;6.188;2023-06-10T03:18:45;14.50;99.90
51615;DHT22;37695;52.960;6.188;2023-06-10T03:21:11;14.40;99.90
51615;DHT22;37695;52.960;6.188;2023-06-10T03:23:37;14.40;99.90
51615;DHT22;37695;52.960;6.188;2023-06-10T03:26:03;14.40;99.90
51615;DHT22;37695;52.960;6.188;2023-06-10T03:28:30;14.30;99.90
51615;DHT22;37695;52.960;6.188;2023-06-10T03:30:56;14.30;99.90
51615;DHT22;37695;52.960;6.188;2023-06-10T03:33:22;14.30;99.90
51615;DHT22;37695;52.960;6.188;2023-06-10T03:35:47;14.30;99.90
51615;DHT22;37695;52.960;6.188;2023-06-10T03:38:13;14.30;99.90
51615;DHT22;37695;52.960;6.188;2023-06-10T03:40:39;14.30;99.90
51615;DHT22;37695;52.960;6.188;2023-06-10T03:43:04;14.30;99.90
51615;DHT22;37695;52.960;6.188;2023-06-10T03:45:30;14.30;99.90
51615;DHT22;37695;52.960;6.188;2023-06-10T03:47:56;14.30;99.90
51615;DHT22;37695;52.960;6.188;2023-06-10T03:50:21;14.30;99.90
51615;DHT22;37695;52.960;6.188;2023-06-10T03:52:48;14.40;99.90
51615;DHT22;37695;52.960;6.188;2023-06-10T03:55:14;14.40;99.90
51615;DHT22;37695;52.960;6.188;2023-06-10T03:57:42;14.30;99.90
51615;DHT22;37695;52.960;6.188;2023-06-10T04:00:08;14.30;99.90
51615;DHT22;37695;52.960;6.188;2023-06-10T04:02:38;14.30;99.90
51615;DHT22;37695;52.960;6.188;2023-06-10T04:05:07;14.40;99.90
51615;DHT22;37695;52.960;6.188;2023-06-10T04:07:32;14.40;99.90
51615;DHT22;37695;52.960;6.188;2023-06-10T04:09:59;14.30;99.90
51615;DHT22;37695;52.960;6.188;2023-06-10T04:12:25;14.30;99.90
51615;DHT22;37695;52.960;6.188;2023-06-10T04:14:50;14.30;99.90
51615;DHT22;37695;52.960;6.188;2023-06-10T04:17:17;14.40;99.90
51615;DHT22;37695;52.960;6.188;2023-06-10T04:19:43;14.40;99.90
51615;DHT22;37695;52.960;6.188;2023-06-10T04:22:08;14.40;99.90
51615;DHT22;37695;52.960;6.188;2023-06-10T04:24:34;14.40;99.90
51615;DHT22;37695;52.960;6.188;2023-06-10T04:26:59;14.40;99.90
51615;DHT22;37695;52.960;6.188;2023-06-10T04:29:26;14.40;99.90
51615;DHT22;37695;52.960;6.188;2023-06-10T04:31:51;14.40;99.90
51615;DHT22;37695;52.960;6.188;2023-06-10T04:34:17;14.40;99.90
51615;DHT22;37695;52.960;6.188;2023-06-10T04:36:42;14.40;99.90
51615;DHT22;37695;52.960;6.188;2023-06-10T04:39:08;14.50;99.90
51615;DHT22;37695;52.960;6.188;2023-06-10T04:41:33;14.50;99.90
51615;DHT22;37695;52.960;6.188;2023-06-10T04:43:59;14.50;99.90
51615;DHT22;37695;52.960;6.188;2023-06-10T04:46:24;14.60;99.90
51615;DHT22;37695;52.960;6.188;2023-06-10T04:48:50;14.60;99.90
51615;DHT22;37695;52.960;6.188;2023-06-10T04:51:16;14.60;99.90
51615;DHT22;37695;52.960;6.188;2023-06-10T04:53:42;14.60;99.90
51615;DHT22;37695;52.960;6.188;2023-06-10T04:56:08;14.60;99.90
51615;DHT22;37695;52.960;6.188;2023-06-10T04:58:33;14.70;99.90
51615;DHT22;37695;52.960;6.188;2023-06-10T05:00:59;14.70;99.90
51615;DHT22;37695;52.960;6.188;2023-06-10T05:03:25;14.70;99.90
51615;DHT22;37695;52.960;6.188;2023-06-10T05:05:51;14.80;99.90
51615;DHT22;37695;52.960;6.188;2023-06-10T05:08:17;14.80;99.90
51615;DHT22;37695;52.960;6.188;2023-06-10T05:10:43;14.90;99.90
51615;DHT22;37695;52.960;6.188;2023-06-10T05:13:08;14.90;99.90
51615;DHT22;37695;52.960;6.188;2023-06-10T05:15:34;14.90;99.90
51615;DHT22;37695;52.960;6.188;2023-06-10T05:17:59;14.90;99.90
51615;DHT22;37695;52.960;6.188;2023-06-10T05:20:27;15.00;99.90
51615;DHT22;37695;52.960;6.188;2023-06-10T05:22:54;15.00;99.90
51615;DHT22;37695;52.960;6.188;2023-06-10T05:25:19;15.10;99.90
51615;DHT22;37695;52.960;6.188;2023-06-10T05:27:45;15.10;99.90
51615;DHT22;37695;52.960;6.188;2023-06-10T05:30:11;15.20;99.90
51615;DHT22;37695;52.960;6.188;2023-06-10T05:32:36;15.20;99.90
51615;DHT22;37695;52.960;6.188;2023-06-10T05:35:02;15.30;99.90
51615;DHT22;37695;52.960;6.188;2023-06-10T05:37:29;15.40;99.90
51615;DHT22;37695;52.960;6.188;2023-06-10T05:39:54;15.40;99.90
51615;DHT22;37695;52.960;6.188;2023-06-10T05:42:20;15.50;99.90
51615;DHT22;37695;52.960;6.188;2023-06-10T05:44:46;15.50;99.90
51615;DHT22;37695;52.960;6.188;2023-06-10T05:47:11;15.60;99.90
51615;DHT22;37695;52.960;6.188;2023-06-10T05:49:37;15.70;99.90
51615;DHT22;37695;52.960;6.188;2023-06-10T05:52:02;15.70;99.90
51615;DHT22;37695;52.960;6.188;2023-06-10T05:54:28;15.80;99.90
51615;DHT22;37695;52.960;6.188;2023-06-10T05:56:54;15.90;99.90
51615;DHT22;37695;52.960;6.188;2023-06-10T05:59:19;15.90;99.90
51615;DHT22;37695;52.960;6.188;2023-06-10T06:01:45;16.00;99.90
51615;DHT22;37695;52.960;6.188;2023-06-10T06:04:10;16.10;99.90
51615;DHT22;37695;52.960;6.188;2023-06-10T06:06:38;16.10;99.90
51615;DHT22;37695;52.960;6.188;2023-06-10T06:09:05;16.20;99.90
51615;DHT22;37695;52.960;6.188;2023-06-10T06:11:30;16.30;99.90
51615;DHT22;37695;52.960;6.188;2023-06-10T06:13:56;16.40;99.90
51615;DHT22;37695;52.960;6.188;2023-06-10T06:16:21;16.40;99.90
51615;DHT22;37695;52.960;6.188;2023-06-10T06:18:47;16.50;99.90
51615;DHT22;37695;52.960;6.188;2023-06-10T06:21:12;16.60;99.90
51615;DHT22;37695;52.960;6.188;2023-06-10T06:23:38;16.70;99.90
51615;DHT22;37695;52.960;6.188;2023-06-10T06:26:04;16.70;99.90
51615;DHT22;37695;52.960;6.188;2023-06-10T06:28:29;16.80;99.90
51615;DHT22;37695;52.960;6.188;2023-06-10T06:30:56;17.00;99.90
51615;DHT22;37695;52.960;6.188;2023-06-10T06:33:22;17.00;99.90
51615;DHT22;37695;52.960;6.188;2023-06-10T06:35:47;17.20;99.90
51615;DHT22;37695;52.960;6.188;2023-06-10T06:38:13;17.20;99.90
51615;DHT22;37695;52.960;6.188;2023-06-10T06:40:38;17.30;99.90
51615;DHT22;37695;52.960;6.188;2023-06-10T06:43:04;17.40;99.90
51615;DHT22;37695;52.960;6.188;2023-06-10T06:45:30;17.50;99.90
51615;DHT22;37695;52.960;6.188;2023-06-10T06:47:55;17.60;99.90
51615;DHT22;37695;52.960;6.188;2023-06-10T06:50:21;17.60;99.90
51615;DHT22;37695;52.960;6.188;2023-06-10T06:52:47;17.80;99.90
51615;DHT22;37695;52.960;6.188;2023-06-10T06:55:12;17.90;99.90
51615;DHT22;37695;52.960;6.188;2023-06-10T06:57:38;18.10;99.90
51615;DHT22;37695;52.960;6.188;2023-06-10T07:00:04;18.20;99.90
51615;DHT22;37695;52.960;6.188;2023-06-10T07:02:30;18.30;99.90
51615;DHT22;37695;52.960;6.188;2023-06-10T07:04:57;18.40;99.90
51615;DHT22;37695;52.960;6.188;2023-06-10T07:07:24;18.50;99.90
51615;DHT22;37695;52.960;6.188;2023-06-10T07:09:50;18.70;99.90
51615;DHT22;37695;52.960;6.188;2023-06-10T07:12:15;18.70;99.90
51615;DHT22;37695;52.960;6.188;2023-06-10T07:14:41;18.90;99.90
51615;DHT22;37695;52.960;6.188;2023-06-10T07:17:06;19.00;99.90
51615;DHT22;37695;52.960;6.188;2023-06-10T07:19:32;19.10;99.90
51615;DHT22;37695;52.960;6.188;2023-06-10T07:21:58;19.20;99.90
51615;DHT22;37695;52.960;6.188;2023-06-10T07:24:23;19.30;99.90
51615;DHT22;37695;52.960;6.188;2023-06-10T07:26:49;19.40;99.90
51615;DHT22;37695;52.960;6.188;2023-06-10T07:29:14;19.50;99.90
51615;DHT22;37695;52.960;6.188;2023-06-10T07:31:41;19.60;99.90
51615;DHT22;37695;52.960;6.188;2023-06-10T07:34:07;19.70;99.90
51615;DHT22;37695;52.960;6.188;2023-06-10T07:36:32;19.90;99.90
51615;DHT22;37695;52.960;6.188;2023-06-10T07:38:58;19.90;99.90
51615;DHT22;37695;52.960;6.188;2023-06-10T07:41:24;20.00;99.90
51615;DHT22;37695;52.960;6.188;2023-06-10T07:43:55;20.10;99.90
51615;DHT22;37695;52.960;6.188;2023-06-10T07:46:22;20.20;99.90
51615;DHT22;37695;52.960;6.188;2023-06-10T07:48:48;20.20;99.90
51615;DHT22;37695;52.960;6.188;2023-06-10T07:51:15;20.30;99.90
51615;DHT22;37695;52.960;6.188;2023-06-10T07:53:41;20.50;99.90
51615;DHT22;37695;52.960;6.188;2023-06-10T07:56:06;20.60;99.90
51615;DHT22;37695;52.960;6.188;2023-06-10T07:58:32;20.70;99.90
51615;DHT22;37695;52.960;6.188;2023-06-10T08:00:57;20.80;99.90
51615;DHT22;37695;52.960;6.188;2023-06-10T08:03:23;20.90;99.90
51615;DHT22;37695;52.960;6.188;2023-06-10T08:05:48;20.90;99.90
51615;DHT22;37695;52.960;6.188;2023-06-10T08:08:14;21.00;99.90
51615;DHT22;37695;52.960;6.188;2023-06-10T08:10:39;21.10;99.90
51615;DHT22;37695;52.960;6.188;2023-06-10T08:13:05;21.30;99.90
51615;DHT22;37695;52.960;6.188;2023-06-10T08:15:31;21.30;99.90
51615;DHT22;37695;52.960;6.188;2023-06-10T08:17:56;21.30;99.90
51615;DHT22;37695;52.960;6.188;2023-06-10T08:20:22;21.50;99.90
51615;DHT22;37695;52.960;6.188;2023-06-10T08:22:47;21.60;99.90
51615;DHT22;37695;52.960;6.188;2023-06-10T08:25:13;21.60;99.90
51615;DHT22;37695;52.960;6.188;2023-06-10T08:27:39;21.60;99.90
51615;DHT22;37695;52.960;6.188;2023-06-10T08:30:05;21.80;99.90
51615;DHT22;37695;52.960;6.188;2023-06-10T08:32:31;21.90;99.90
51615;DHT22;37695;52.960;6.188;2023-06-10T08:34:56;22.00;99.90
51615;DHT22;37695;52.960;6.188;2023-06-10T08:37:22;22.10;99.90
51615;DHT22;37695;52.960;6.188;2023-06-10T08:39:47;22.20;99.90
51615;DHT22;37695;52.960;6.188;2023-06-10T08:42:28;22.30;99.70
51615;DHT22;37695;52.960;6.188;2023-06-10T08:44:55;22.40;99.90
51615;DHT22;37695;52.960;6.188;2023-06-10T08:47:23;22.50;99.90
51615;DHT22;37695;52.960;6.188;2023-06-10T08:49:51;22.60;99.10
51615;DHT22;37695;52.960;6.188;2023-06-10T08:52:19;22.70;99.80
51615;DHT22;37695;52.960;6.188;2023-06-10T08:54:59;22.80;97.70
51615;DHT22;37695;52.960;6.188;2023-06-10T08:57:25;22.80;96.20
51615;DHT22;37695;52.960;6.188;2023-06-10T08:59:53;23.00;96.60
51615;DHT22;37695;52.960;6.188;2023-06-10T09:02:20;23.10;97.10
51615;DHT22;37695;52.960;6.188;2023-06-10T09:04:47;23.30;97.80
51615;DHT22;37695;52.960;6.188;2023-06-10T09:07:14;23.50;96.90
51615;DHT22;37695;52.960;6.188;2023-06-10T09:09:42;23.50;97.60
51615;DHT22;37695;52.960;6.188;2023-06-10T09:12:08;23.70;97.50
51615;DHT22;37695;52.960;6.188;2023-06-10T09:14:34;23.70;97.80
51615;DHT22;37695;52.960;6.188;2023-06-10T09:17:01;23.80;97.40
51615;DHT22;37695;52.960;6.188;2023-06-10T09:19:27;23.90;97.40
51615;DHT22;37695;52.960;6.188;2023-06-10T09:21:53;23.90;95.50
51615;DHT22;37695;52.960;6.188;2023-06-10T09:24:19;24.10;97.50
51615;DHT22;37695;52.960;6.188;2023-06-10T09:26:46;24.10;96.70
51615;DHT22;37695;52.960;6.188;2023-06-10T09:29:11;24.30;96.60
51615;DHT22;37695;52.960;6.188;2023-06-10T09:31:39;24.50;95.90
51615;DHT22;37695;52.960;6.188;2023-06-10T09:34:12;24.50;95.20
51615;DHT22;37695;52.960;6.188;2023-06-10T09:36:38;24.60;94.70
51615;DHT22;37695;52.960;6.188;2023-06-10T09:39:05;24.60;93.30
51615;DHT22;37695;52.960;6.188;2023-06-10T09:41:40;24.80;95.20
51615;DHT22;37695;52.960;6.188;2023-06-10T09:44:31;24.70;90.50
51615;DHT22;37695;52.960;6.188;2023-06-10T09:46:57;24.90;94.10
51615;DHT22;37695;52.960;6.188;2023-06-10T09:49:29;25.00;93.30
51615;DHT22;37695;52.960;6.188;2023-06-10T09:51:55;25.30;94.50
51615;DHT22;37695;52.960;6.188;2023-06-10T09:54:21;25.50;94.30
51615;DHT22;37695;52.960;6.188;2023-06-10T09:56:56;25.40;91.10
51615;DHT22;37695;52.960;6.188;2023-06-10T09:59:30;25.50;92.00
51615;DHT22;37695;52.960;6.188;2023-06-10T10:02:00;25.60;93.40
51615;DHT22;37695;52.960;6.188;2023-06-10T10:04:26;25.60;90.40
51615;DHT22;37695;52.960;6.188;2023-06-10T10:06:52;25.60;88.90
51615;DHT22;37695;52.960;6.188;2023-06-10T10:09:18;25.70;91.10
51615;DHT22;37695;52.960;6.188;2023-06-10T10:11:44;25.70;89.80
51615;DHT22;37695;52.960;6.188;2023-06-10T10:14:10;25.90;89.00
51615;DHT22;37695;52.960;6.188;2023-06-10T10:16:37;26.10;90.50
51615;DHT22;37695;52.960;6.188;2023-06-10T10:19:18;26.10;90.80
51615;DHT22;37695;52.960;6.188;2023-06-10T10:22:00;26.40;91.00
51615;DHT22;37695;52.960;6.188;2023-06-10T10:24:50;26.40;90.00
51615;DHT22;37695;52.960;6.188;2023-06-10T10:27:55;26.50;86.70
51615;DHT22;37695;52.960;6.188;2023-06-10T10:30:22;26.40;86.30
51615;DHT22;37695;52.960;6.188;2023-06-10T10:33:04;26.50;88.10
51615;DHT22;37695;52.960;6.188;2023-06-10T10:35:31;26.70;83.40
51615;DHT22;37695;52.960;6.188;2023-06-10T10:37:58;26.90;81.60
51615;DHT22;37695;52.960;6.188;2023-06-10T10:40:25;27.00;85.10
51615;DHT22;37695;52.960;6.188;2023-06-10T10:42:51;27.10;86.70
51615;DHT22;37695;52.960;6.188;2023-06-10T10:45:18;27.30;82.10
51615;DHT22;37695;52.960;6.188;2023-06-10T10:47:46;27.20;85.40
51615;DHT22;37695;52.960;6.188;2023-06-10T10:50:19;27.30;82.90
51615;DHT22;37695;52.960;6.188;2023-06-10T10:53:02;27.40;82.70
51615;DHT22;37695;52.960;6.188;2023-06-10T10:55:28;27.30;80.50
51615;DHT22;37695;52.960;6.188;2023-06-10T10:58:07;27.50;83.60
51615;DHT22;37695;52.960;6.188;2023-06-10T11:00:37;27.60;81.60
51615;DHT22;37695;52.960;6.188;2023-06-10T11:05:36;27.60;80.90
51615;DHT22;37695;52.960;6.188;2023-06-10T11:08:03;27.80;83.00
51615;DHT22;37695;52.960;6.188;2023-06-10T11:10:51;27.80;82.20
51615;DHT22;37695;52.960;6.188;2023-06-10T11:13:21;27.70;77.50
51615;DHT22;37695;52.960;6.188;2023-06-10T11:15:49;28.00;83.20
51615;DHT22;37695;52.960;6.188;2023-06-10T11:18:29;27.90;78.20
51615;DHT22;37695;52.960;6.188;2023-06-10T11:20:59;28.10;78.40
51615;DHT22;37695;52.960;6.188;2023-06-10T11:26:10;28.30;79.20
51615;DHT22;37695;52.960;6.188;2023-06-10T11:28:36;28.40;79.30
51615;DHT22;37695;52.960;6.188;2023-06-10T11:31:02;28.40;75.90
51615;DHT22;37695;52.960;6.188;2023-06-10T11:33:27;28.50;78.70
51615;DHT22;37695;52.960;6.188;2023-06-10T11:35:54;28.60;77.50
51615;DHT22;37695;52.960;6.188;2023-06-10T11:38:20;28.80;80.30
51615;DHT22;37695;52.960;6.188;2023-06-10T11:40:48;28.80;74.10
51615;DHT22;37695;52.960;6.188;2023-06-10T11:43:18;28.80;75.90
51615;DHT22;37695;52.960;6.188;2023-06-10T11:45:44;28.80;75.10
51615;DHT22;37695;52.960;6.188;2023-06-10T11:48:10;28.90;77.40
51615;DHT22;37695;52.960;6.188;2023-06-10T11:50:37;28.80;73.60
51615;DHT22;37695;52.960;6.188;2023-06-10T11:53:03;28.80;71.90
51615;DHT22;37695;52.960;6.188;2023-06-10T11:55:49;28.90;77.20
51615;DHT22;37695;52.960;6.188;2023-06-10T11:58:22;28.90;74.00
51615;DHT22;37695;52.960;6.188;2023-06-10T12:00:48;29.10;76.60
51615;DHT22;37695;52.960;6.188;2023-06-10T12:03:14;28.90;64.90
51615;DHT22;37695;52.960;6.188;2023-06-10T12:05:40;28.90;70.20
51615;DHT22;37695;52.960;6.188;2023-06-10T12:08:12;29.20;73.40
51615;DHT22;37695;52.960;6.188;2023-06-10T12:10:41;29.30;73.30
51615;DHT22;37695;52.960;6.188;2023-06-10T12:13:08;29.40;70.40
51615;DHT22;37695;52.960;6.188;2023-06-10T12:15:34;29.40;68.10
51615;DHT22;37695;52.960;6.188;2023-06-10T12:18:01;29.50;68.80
51615;DHT22;37695;52.960;6.188;2023-06-10T12:20:28;29.50;69.40
51615;DHT22;37695;52.960;6.188;2023-06-10T12:22:54;29.50;68.10
51615;DHT22;37695;52.960;6.188;2023-06-10T12:25:25;29.50;71.80
51615;DHT22;37695;52.960;6.188;2023-06-10T12:27:53;29.50;66.80
51615;DHT22;37695;52.960;6.188;2023-06-10T12:30:26;29.50;65.30
51615;DHT22;37695;52.960;6.188;2023-06-10T12:32:52;29.50;66.40
51615;DHT22;37695;52.960;6.188;2023-06-10T12:35:20;29.50;70.40
51615;DHT22;37695;52.960;6.188;2023-06-10T12:40:26;29.50;70.70
51615;DHT22;37695;52.960;6.188;2023-06-10T12:42:54;29.60;69.90
51615;DHT22;37695;52.960;6.188;2023-06-10T12:45:30;29.80;73.20
51615;DHT22;37695;52.960;6.188;2023-06-10T12:50:35;29.80;67.30
51615;DHT22;37695;52.960;6.188;2023-06-10T12:53:03;29.60;68.20
51615;DHT22;37695;52.960;6.188;2023-06-10T12:55:28;29.60;69.90
51615;DHT22;37695;52.960;6.188;2023-06-10T12:57:54;29.50;65.60
51615;DHT22;37695;52.960;6.188;2023-06-10T13:00:20;29.40;66.40
51615;DHT22;37695;52.960;6.188;2023-06-10T13:02:48;29.60;70.50
51615;DHT22;37695;52.960;6.188;2023-06-10T13:05:13;29.50;69.10
51615;DHT22;37695;52.960;6.188;2023-06-10T13:07:39;29.50;67.00
51615;DHT22;37695;52.960;6.188;2023-06-10T13:10:05;29.50;69.90
51615;DHT22;37695;52.960;6.188;2023-06-10T13:12:30;29.50;68.70
51615;DHT22;37695;52.960;6.188;2023-06-10T13:14:56;29.50;71.20
51615;DHT22;37695;52.960;6.188;2023-06-10T13:17:22;29.40;69.40
51615;DHT22;37695;52.960;6.188;2023-06-10T13:19:47;29.20;69.20
51615;DHT22;37695;52.960;6.188;2023-06-10T13:22:14;29.10;69.80
51615;DHT22;37695;52.960;6.188;2023-06-10T13:24:40;29.00;70.80
51615;DHT22;37695;52.960;6.188;2023-06-10T13:27:06;29.20;71.50
51615;DHT22;37695;52.960;6.188;2023-06-10T13:29:32;29.10;71.30
51615;DHT22;37695;52.960;6.188;2023-06-10T13:31:58;29.00;69.00
51615;DHT22;37695;52.960;6.188;2023-06-10T13:34:23;28.90;71.60
51615;DHT22;37695;52.960;6.188;2023-06-10T13:36:49;28.90;72.00
51615;DHT22;37695;52.960;6.188;2023-06-10T13:39:14;28.90;73.50
51615;DHT22;37695;52.960;6.188;2023-06-10T13:41:41;28.80;71.80
51615;DHT22;37695;52.960;6.188;2023-06-10T13:44:07;28.70;73.50
51615;DHT22;37695;52.960;6.188;2023-06-10T13:46:33;28.80;73.30
51615;DHT22;37695;52.960;6.188;2023-06-10T13:48:58;28.70;72.40
51615;DHT22;37695;52.960;6.188;2023-06-10T13:51:24;28.80;72.20
51615;DHT22;37695;52.960;6.188;2023-06-10T13:53:49;28.70;73.70
51615;DHT22;37695;52.960;6.188;2023-06-10T13:56:17;28.60;73.00
51615;DHT22;37695;52.960;6.188;2023-06-10T13:58:43;28.70;74.30
51615;DHT22;37695;52.960;6.188;2023-06-10T14:01:08;28.60;74.80
51615;DHT22;37695;52.960;6.188;2023-06-10T14:03:34;28.70;77.70
51615;DHT22;37695;52.960;6.188;2023-06-10T14:06:00;28.80;76.40
51615;DHT22;37695;52.960;6.188;2023-06-10T14:08:25;28.70;73.10
51615;DHT22;37695;52.960;6.188;2023-06-10T14:10:51;28.60;70.80
51615;DHT22;37695;52.960;6.188;2023-06-10T14:13:17;28.50;72.10
51615;DHT22;37695;52.960;6.188;2023-06-10T14:15:43;28.50;74.60
51615;DHT22;37695;52.960;6.188;2023-06-10T14:18:08;28.60;77.50
51615;DHT22;37695;52.960;6.188;2023-06-10T14:20:34;28.50;71.40
51615;DHT22;37695;52.960;6.188;2023-06-10T14:22:59;28.60;75.70
51615;DHT22;37695;52.960;6.188;2023-06-10T14:25:25;28.50;74.20
51615;DHT22;37695;52.960;6.188;2023-06-10T14:27:51;28.50;76.20
51615;DHT22;37695;52.960;6.188;2023-06-10T14:30:16;28.50;74.70
51615;DHT22;37695;52.960;6.188;2023-06-10T14:32:42;28.50;76.70
51615;DHT22;37695;52.960;6.188;2023-06-10T14:35:08;28.60;75.40
51615;DHT22;37695;52.960;6.188;2023-06-10T14:37:34;28.60;75.00
51615;DHT22;37695;52.960;6.188;2023-06-10T14:39:59;28.60;77.20
51615;DHT22;37695;52.960;6.188;2023-06-10T14:42:25;28.60;74.40
51615;DHT22;37695;52.960;6.188;2023-06-10T14:44:50;28.60;77.50
51615;DHT22;37695;52.960;6.188;2023-06-10T14:47:16;28.60;75.40
51615;DHT22;37695;52.960;6.188;2023-06-10T14:49:42;28.40;75.90
51615;DHT22;37695;52.960;6.188;2023-06-10T14:52:09;28.50;76.80
51615;DHT22;37695;52.960;6.188;2023-06-10T14:54:34;28.50;73.40
51615;DHT22;37695;52.960;6.188;2023-06-10T14:57:00;28.50;74.70
51615;DHT22;37695;52.960;6.188;2023-06-10T14:59:26;28.50;75.40
51615;DHT22;37695;52.960;6.188;2023-06-10T15:01:51;28.50;73.40
51615;DHT22;37695;52.960;6.188;2023-06-10T15:04:17;28.40;75.40
51615;DHT22;37695;52.960;6.188;2023-06-10T15:06:43;28.40;75.20
51615;DHT22;37695;52.960;6.188;2023-06-10T15:09:09;28.30;76.10
51615;DHT22;37695;52.960;6.188;2023-06-10T15:11:34;28.40;77.90
51615;DHT22;37695;52.960;6.188;2023-06-10T15:14:00;28.30;76.90
51615;DHT22;37695;52.960;6.188;2023-06-10T15:16:25;28.20;75.00
51615;DHT22;37695;52.960;6.188;2023-06-10T15:18:51;28.10;74.70
51615;DHT22;37695;52.960;6.188;2023-06-10T15:21:16;28.10;76.70
51615;DHT22;37695;52.960;6.188;2023-06-10T15:23:42;28.00;75.50
51615;DHT22;37695;52.960;6.188;2023-06-10T15:26:08;28.00;77.50
51615;DHT22;37695;52.960;6.188;2023-06-10T15:28:33;28.00;77.70
51615;DHT22;37695;52.960;6.188;2023-06-10T15:30:59;27.90;80.10
51615;DHT22;37695;52.960;6.188;2023-06-10T15:33:24;27.90;76.60
51615;DHT22;37695;52.960;6.188;2023-06-10T15:35:50;27.80;74.90
51615;DHT22;37695;52.960;6.188;2023-06-10T15:38:18;27.80;77.10
51615;DHT22;37695;52.960;6.188;2023-06-10T15:40:43;27.80;75.80